Boyes, Montana
Current Conditions -  °F | °C
As of 4:53 AM on Tuesday 27 Jan 2015 (Local Time) from KGCC Reporting Station
Clear Clear  
Wind Chill: 50°   Ceiling: Unl
Heat Index: 50°   Visibility: 10mi
Dew Point: 26°   Wind: 17mph
Humidity: 39%   Direction: 230°SW
Pressure: 29.99"   Gusts: NA
Location:  45.27°N, 105.03°W
Report Text: KGCC 271153Z AUTO 23015KT 10SM CLR 10/M03 A2999 RMK AO2 SLP140 7//// T01001033 10100 20083 56002 TSNO
Loading
Personal Weather Stations






























Interactive Weather Map New forecast layout! Learn more

10-Day Weather Forecast

Advertisements
Track Severe Weather on mobile